aviador You're here:

ZSSS Decoded Metar

SHANGHAI in CHINA
Report Time2017-07-21 02:30:00
UTC Time2017-07-21 02:54:36
Flight Rules vfr VFR
Wind270° at 8 kt
W.Decomp.*RWY 36: 0.7 kt HW 8 kt LCW
W.Rank270° ranks 29
Current wind is above 270° avg. (7.7)
Visibility9999 m
Phenomena:N/A
Clouds:Few 033 Hf
Expected CloudBase > 5,600 ft AGL from Temp-Dew spread
CeilingNone
Temp38°C (ISA +23)
Dew Point24°C (45% RH)
Heat Index45.9°C
QNH1009 hPa
Density Alt3,146 ft
Elevation23 ft
Report Wrong Elevation
Raw Report
ZSSS 210230Z 27004MPS 230V340 9999 FEW033 38/24 Q1009 NOSIG=

Extra information for ZSSS:More info

Metar Taf Metar & Taf Last 4 Metars F.Rules Stats Wind Profile Meteogram Temp Stats Airport Information Weather charts Add Link Nearby VenuesMetar ALERT Operation Metar Decoded Social comments